Time,TemperatureF,DewpointF,PressureIn,WindDirection,WindDirectionDegrees,WindSpeedMPH,WindSpeedGustMPH,Humidity,HourlyPrecipIn,Conditions,Clouds,dailyrainin,SolarRadiationWatts/m^2,SoftwareType,DateUTC
2013-03-10 00:01:00,34.0,34.0,-100.00,NW,308,2.0,6.0,98,0.00,,,0.40,0.000000,,2013-03-10 06:01:00,
2013-03-10 00:11:00,34.0,34.0,-100.00,NW,308,2.0,6.0,98,0.00,,,0.40,0.000000,,2013-03-10 06:11:00,
2013-03-10 00:32:00,33.0,32.0,-100.00,NW,317,2.0,5.0,98,0.00,,,0.40,0.000000,,2013-03-10 06:32:00,
2013-03-10 00:42:00,33.0,32.0,-100.00,NW,317,2.0,5.0,98,0.00,,,0.40,0.000000,,2013-03-10 06:42:00,
2013-03-10 00:52:00,33.0,32.0,-100.00,NW,317,2.0,5.0,98,0.00,,,0.40,0.000000,,2013-03-10 06:52:00,
2013-03-10 01:02:00,33.0,32.0,-100.00,NW,317,2.0,5.0,98,0.00,,,0.40,0.000000,,2013-03-10 07:02:00,
2013-03-10 01:11:00,33.0,32.0,-100.00,NW,317,2.0,5.0,98,0.00,,,0.40,0.000000,,2013-03-10 07:11:00,
2013-03-10 01:32:00,33.0,32.0,-100.00,NW,326,4.0,8.0,96,0.00,,,0.40,0.000000,,2013-03-10 07:32:00,
2013-03-10 01:42:00,33.0,32.0,-100.00,NW,326,4.0,8.0,96,0.00,,,0.40,0.000000,,2013-03-10 07:42:00,
2013-03-10 01:52:00,33.0,32.0,-100.00,NW,326,4.0,8.0,96,0.00,,,0.40,0.000000,,2013-03-10 07:52:00,
2013-03-10 03:01:00,33.0,32.0,-100.00,NW,326,4.0,8.0,96,0.00,,,0.40,0.000000,,2013-03-10 08:01:00,
2013-03-10 03:11:00,33.0,32.0,-100.00,NW,326,4.0,8.0,96,0.00,,,0.40,0.000000,,2013-03-10 08:11:00,
2013-03-10 03:42:00,34.0,32.0,-100.00,NNW,343,6.0,10.0,93,0.00,,,0.40,0.000000,,2013-03-10 08:42:00,
2013-03-10 03:52:00,34.0,32.0,-100.00,NNW,343,6.0,10.0,93,0.00,,,0.40,0.000000,,2013-03-10 08:52:00,
2013-03-10 04:01:00,34.0,32.0,-100.00,NNW,343,6.0,10.0,93,0.00,,,0.40,0.000000,,2013-03-10 09:01:00,
2013-03-10 04:11:00,34.0,32.0,-100.00,NNW,343,6.0,10.0,93,0.00,,,0.40,0.000000,,2013-03-10 09:11:00,
2013-03-10 04:42:00,34.0,31.0,-100.00,NNW,340,5.0,13.0,89,0.00,,,0.40,0.000000,,2013-03-10 09:42:00,
2013-03-10 04:52:00,34.0,31.0,-100.00,NNW,340,5.0,13.0,89,0.00,,,0.40,0.000000,,2013-03-10 09:52:00,
2013-03-10 05:01:00,34.0,31.0,-100.00,NNW,340,5.0,13.0,89,0.00,,,0.40,0.000000,,2013-03-10 10:01:00,
2013-03-10 05:11:00,34.0,31.0,-100.00,NNW,340,5.0,13.0,89,0.00,,,0.40,0.000000,,2013-03-10 10:11:00,
2013-03-10 05:42:00,33.0,28.0,-100.00,NNW,348,8.0,19.0,83,0.00,,,0.40,0.000000,,2013-03-10 10:42:00,
2013-03-10 05:52:00,33.0,28.0,-100.00,NNW,348,8.0,19.0,83,0.00,,,0.40,0.000000,,2013-03-10 10:52:00,
2013-03-10 06:01:00,33.0,28.0,-100.00,NNW,348,8.0,19.0,83,0.00,,,0.40,0.000000,,2013-03-10 11:01:00,
2013-03-10 06:12:00,33.0,28.0,-100.00,NNW,348,8.0,19.0,83,0.00,,,0.40,0.000000,,2013-03-10 11:12:00,
2013-03-10 08:42:00,34.0,28.0,-100.00,North,359,8.0,18.0,79,-99.99,,,0.33,4.000000,,2013-03-10 13:42:00,
2013-03-10 08:52:00,34.0,28.0,-100.00,North,359,8.0,18.0,79,-99.99,,,0.33,4.000000,,2013-03-10 13:52:00,
2013-03-10 09:01:00,34.0,28.0,-100.00,North,359,8.0,18.0,79,-99.99,,,0.33,4.000000,,2013-03-10 14:01:00,
2013-03-10 09:11:00,34.0,28.0,-100.00,North,359,8.0,18.0,79,-99.99,,,0.33,4.000000,,2013-03-10 14:11:00,
2013-03-10 09:42:00,34.0,28.0,-100.00,North,5,6.0,18.0,80,0.00,,,0.33,13.000000,,2013-03-10 14:42:00,
2013-03-10 09:52:00,34.0,28.0,-100.00,North,5,6.0,18.0,80,0.00,,,0.33,13.000000,,2013-03-10 14:52:00,
2013-03-10 10:01:00,34.0,28.0,-100.00,North,5,6.0,18.0,80,0.00,,,0.33,13.000000,,2013-03-10 15:01:00,
2013-03-10 10:11:00,34.0,28.0,-100.00,North,5,6.0,18.0,80,0.00,,,0.33,13.000000,,2013-03-10 15:11:00,
2013-03-10 10:42:00,34.0,28.0,-100.00,North,5,7.0,15.0,80,0.00,,,0.33,31.000000,,2013-03-10 15:42:00,
2013-03-10 10:52:00,34.0,28.0,-100.00,North,5,7.0,15.0,80,0.00,,,0.33,31.000000,,2013-03-10 15:52:00,
2013-03-10 11:01:00,34.0,28.0,-100.00,North,5,7.0,15.0,80,0.00,,,0.33,31.000000,,2013-03-10 16:01:00,
2013-03-10 11:12:00,34.0,28.0,-100.00,North,5,7.0,15.0,80,0.00,,,0.33,31.000000,,2013-03-10 16:12:00,
2013-03-10 11:42:00,32.0,28.0,-100.00,North,1,8.0,17.0,84,0.00,,,0.33,53.000000,,2013-03-10 16:42:00,
2013-03-10 11:52:00,32.0,28.0,-100.00,North,1,8.0,17.0,84,0.00,,,0.33,53.000000,,2013-03-10 16:52:00,
2013-03-10 12:01:00,32.0,28.0,-100.00,North,1,8.0,17.0,84,0.00,,,0.33,53.000000,,2013-03-10 17:01:00,
2013-03-10 12:11:00,32.0,28.0,-100.00,North,1,8.0,17.0,84,0.00,,,0.33,53.000000,,2013-03-10 17:11:00,
2013-03-10 13:42:00,33.0,26.0,-100.00,North,4,7.0,17.0,76,-99.99,,,0.26,90.000000,,2013-03-10 18:42:00,
2013-03-10 13:52:00,33.0,26.0,-100.00,North,4,7.0,17.0,76,-99.99,,,0.26,90.000000,,2013-03-10 18:52:00,
2013-03-10 14:01:00,33.0,26.0,-100.00,North,4,7.0,17.0,76,-99.99,,,0.26,90.000000,,2013-03-10 19:01:00,
2013-03-10 14:11:00,33.0,26.0,-100.00,North,4,7.0,17.0,76,-99.99,,,0.26,90.000000,,2013-03-10 19:11:00,
2013-03-10 14:42:00,33.0,26.0,-100.00,North,5,8.0,17.0,74,0.00,,,0.23,117.000000,,2013-03-10 19:42:00,
2013-03-10 14:53:00,33.0,26.0,-100.00,North,5,8.0,17.0,74,0.00,,,0.23,117.000000,,2013-03-10 19:53:00,
2013-03-10 15:02:00,33.0,26.0,-100.00,North,5,8.0,17.0,74,0.00,,,0.23,117.000000,,2013-03-10 20:02:00,
2013-03-10 15:12:00,33.0,26.0,-100.00,North,5,8.0,17.0,74,0.00,,,0.23,117.000000,,2013-03-10 20:12:00,
2013-03-10 15:33:00,33.0,25.0,-100.00,North,6,9.0,19.0,71,0.00,,,0.17,116.000000,,2013-03-10 20:33:00,
2013-03-10 15:43:00,33.0,25.0,-100.00,North,6,9.0,19.0,71,0.00,,,0.17,116.000000,,2013-03-10 20:43:00,
2013-03-10 15:53:00,33.0,25.0,-100.00,North,6,9.0,19.0,71,0.00,,,0.17,116.000000,,2013-03-10 20:53:00,
2013-03-10 16:02:00,33.0,25.0,-100.00,North,6,9.0,19.0,71,0.00,,,0.17,116.000000,,2013-03-10 21:02:00,
2013-03-10 16:12:00,33.0,25.0,-100.00,North,6,9.0,19.0,71,0.00,,,0.17,116.000000,,2013-03-10 21:12:00,
2013-03-10 16:33:00,33.0,25.0,-100.00,North,358,7.0,16.0,73,0.00,,,0.11,101.000000,,2013-03-10 21:33:00,
2013-03-10 16:43:00,33.0,25.0,-100.00,North,358,7.0,16.0,73,0.00,,,0.11,101.000000,,2013-03-10 21:43:00,
2013-03-10 16:53:00,33.0,25.0,-100.00,North,358,7.0,16.0,73,0.00,,,0.11,101.000000,,2013-03-10 21:53:00,
2013-03-10 17:02:00,33.0,25.0,-100.00,North,358,7.0,16.0,73,0.00,,,0.11,101.000000,,2013-03-10 22:02:00,
2013-03-10 17:12:00,33.0,25.0,-100.00,North,358,7.0,16.0,73,0.00,,,0.11,101.000000,,2013-03-10 22:12:00,
2013-03-10 17:43:00,32.0,25.0,-100.00,North,354,9.0,19.0,74,0.00,,,0.10,72.000000,,2013-03-10 22:43:00,
2013-03-10 17:53:00,32.0,25.0,-100.00,North,354,9.0,19.0,74,0.00,,,0.10,72.000000,,2013-03-10 22:53:00,
2013-03-10 18:03:00,32.0,25.0,-100.00,North,354,9.0,19.0,74,0.00,,,0.10,72.000000,,2013-03-10 23:03:00,
2013-03-10 18:12:00,32.0,25.0,-100.00,North,354,9.0,19.0,74,0.00,,,0.10,72.000000,,2013-03-10 23:12:00,
2013-03-10 18:33:00,31.0,24.0,-100.00,North,11,7.0,18.0,74,0.00,,,0.07,38.000000,,2013-03-10 23:33:00,
2013-03-10 18:43:00,31.0,24.0,-100.00,North,11,7.0,18.0,74,0.00,,,0.07,38.000000,,2013-03-10 23:43:00,
2013-03-10 18:52:00,31.0,24.0,-100.00,North,11,7.0,18.0,74,0.00,,,0.07,38.000000,,2013-03-10 23:52:00,
2013-03-10 19:02:00,31.0,24.0,-100.00,North,11,7.0,18.0,74,0.00,,,0.07,38.000000,,2013-03-11 00:02:00,
2013-03-10 19:12:00,31.0,24.0,-100.00,North,11,7.0,18.0,74,0.00,,,0.07,38.000000,,2013-03-11 00:12:00,
2013-03-10 19:43:00,31.0,24.0,-100.00,North,7,9.0,20.0,75,0.00,,,0.05,8.000000,,2013-03-11 00:43:00,
2013-03-10 19:53:00,31.0,24.0,-100.00,North,7,9.0,20.0,75,0.00,,,0.05,8.000000,,2013-03-11 00:53:00,
2013-03-10 20:03:00,31.0,24.0,-100.00,North,7,9.0,20.0,75,0.00,,,0.05,8.000000,,2013-03-11 01:03:00,
2013-03-10 20:13:00,31.0,24.0,-100.00,North,7,9.0,20.0,75,0.00,,,0.05,8.000000,,2013-03-11 01:13:00,
2013-03-10 20:43:00,30.0,23.0,-100.00,North,5,8.0,18.0,74,0.00,,,0.04,0.000000,,2013-03-11 01:43:00,
2013-03-10 20:53:00,30.0,23.0,-100.00,North,5,8.0,18.0,74,0.00,,,0.04,0.000000,,2013-03-11 01:53:00,
2013-03-10 21:02:00,30.0,23.0,-100.00,North,5,8.0,18.0,74,0.00,,,0.04,0.000000,,2013-03-11 02:02:00,
2013-03-10 21:12:00,30.0,23.0,-100.00,North,5,8.0,18.0,74,0.00,,,0.04,0.000000,,2013-03-11 02:12:00,
2013-03-10 21:42:00,29.0,21.0,-100.00,NNE,23,7.0,17.0,72,0.00,,,0.03,0.000000,,2013-03-11 02:42:00,
2013-03-10 21:53:00,29.0,21.0,-100.00,NNE,23,7.0,17.0,72,0.00,,,0.03,0.000000,,2013-03-11 02:53:00,
2013-03-10 22:02:00,29.0,21.0,-100.00,NNE,23,7.0,17.0,72,0.00,,,0.03,0.000000,,2013-03-11 03:02:00,
2013-03-10 22:12:00,29.0,21.0,-100.00,NNE,23,7.0,17.0,72,0.00,,,0.03,0.000000,,2013-03-11 03:12:00,
2013-03-10 22:32:00,29.0,21.0,-100.00,NNE,19,7.0,17.0,73,0.00,,,0.01,0.000000,,2013-03-11 03:32:00,
2013-03-10 22:43:00,29.0,21.0,-100.00,NNE,19,7.0,17.0,73,0.00,,,0.01,0.000000,,2013-03-11 03:43:00,
2013-03-10 22:53:00,29.0,21.0,-100.00,NNE,19,7.0,17.0,73,0.00,,,0.01,0.000000,,2013-03-11 03:53:00,
2013-03-10 23:02:00,29.0,21.0,-100.00,NNE,19,7.0,17.0,73,0.00,,,0.01,0.000000,,2013-03-11 04:02:00,
2013-03-10 23:12:00,29.0,21.0,-100.00,NNE,19,7.0,17.0,73,0.00,,,0.01,0.000000,,2013-03-11 04:12:00,
2013-03-10 23:33:00,29.0,21.0,-100.00,NNE,18,6.0,14.0,73,0.00,,,0.00,0.000000,,2013-03-11 04:33:00,
2013-03-10 23:43:00,29.0,21.0,-100.00,NNE,18,6.0,14.0,73,0.00,,,0.00,0.000000,,2013-03-11 04:43:00,
2013-03-10 23:53:00,29.0,21.0,-100.00,NNE,18,6.0,14.0,73,0.00,,,0.00,0.000000,,2013-03-11 04:53:00,